Time;durP1;ratioP1;P1;durP2;ratioP2;P2;SDS_P1;SDS_P2;PMS_P1;PMS_P2;Temp;Humidity;BMP_temperature;BMP_pressure;BME280_temperature;BME280_humidity;BME280_pressure;Samples;Min_cycle;Max_cycle;Signal;HPM_P1;HPM_P2
2020/12/15 00:01:03;;;;;;;4.63;4.33;;;;;;;7.09;74.15;99905.47;5052409;28;20171;-77
2020/12/15 00:03:29;;;;;;;5.27;4.97;;;;;;;7.11;74.51;99911.41;5052344;28;20175;-77
2020/12/15 00:05:54;;;;;;;4.67;4.30;;;;;;;7.07;74.38;99896.81;5052331;28;20171;-77
2020/12/15 00:08:20;;;;;;;5.10;4.80;;;;;;;7.01;75.03;99898.81;5051964;28;20627;-78
2020/12/15 00:10:46;;;;;;;4.47;4.17;;;;;;;7.07;74.32;99889.47;5052146;28;20281;-77
2020/12/15 00:13:11;;;;;;;4.33;4.03;;;;;;;7.13;73.84;99898.34;5052124;28;20631;-77
2020/12/15 00:15:37;;;;;;;4.90;4.60;;;;;;;7.14;73.61;99898.03;5052098;28;20267;-77
2020/12/15 00:18:02;;;;;;;4.53;4.10;;;;;;;7.18;73.42;99895.50;5052064;28;20179;-77
2020/12/15 00:20:28;;;;;;;2.47;2.27;;;;;;;7.28;73.06;99898.03;5052029;28;20642;-77
2020/12/15 00:22:53;;;;;;;3.90;3.60;;;;;;;7.31;72.93;99894.69;5052003;28;20229;-77
2020/12/15 00:25:19;;;;;;;3.60;3.37;;;;;;;7.34;72.12;99894.09;5051943;28;20225;-77
2020/12/15 00:27:46;;;;;;;3.43;3.23;;;;;;;7.40;72.43;99886.66;5051819;28;20183;-77
2020/12/15 00:30:12;;;;;;;4.17;3.87;;;;;;;7.44;72.32;99887.63;5051800;28;20536;-77
2020/12/15 00:32:37;;;;;;;3.97;3.67;;;;;;;7.45;72.03;99886.53;5051766;28;20203;-77
2020/12/15 00:35:03;;;;;;;3.90;3.70;;;;;;;7.41;72.73;99878.19;5051682;28;20179;-77
2020/12/15 00:37:33;;;;;;;2.23;2.13;;;;;;;7.47;71.72;99887.03;5051625;28;20229;-78
2020/12/15 00:39:59;;;;;;;4.23;3.93;;;;;;;7.50;71.78;99872.81;5051621;28;20180;-77
2020/12/15 00:42:24;;;;;;;4.03;3.83;;;;;;;7.40;72.88;99875.78;5051551;28;20538;-77
2020/12/15 00:44:49;;;;;;;3.50;3.30;;;;;;;7.45;72.74;99870.22;5051383;28;20182;-77
2020/12/15 00:47:15;;;;;;;3.80;3.50;;;;;;;7.44;72.29;99879.50;5051201;28;20187;-77
2020/12/15 00:49:40;;;;;;;4.10;3.90;;;;;;;7.45;72.44;99881.91;5051317;28;20231;-77
2020/12/15 00:52:05;;;;;;;4.30;3.90;;;;;;;7.46;72.76;99878.06;5050776;28;20211;-77
2020/12/15 00:54:31;;;;;;;3.37;3.17;;;;;;;7.45;72.38;99878.38;5051322;28;20258;-77
2020/12/15 00:56:56;;;;;;;4.00;3.80;;;;;;;7.44;72.91;99887.63;5051244;28;20171;-77
2020/12/15 00:59:21;;;;;;;3.90;3.70;;;;;;;7.45;72.23;99881.09;5051322;28;20171;-76
2020/12/15 01:01:47;;;;;;;3.50;3.30;;;;;;;7.51;72.08;99893.44;5051682;28;20308;-78
2020/12/15 01:04:12;;;;;;;3.47;3.27;;;;;;;7.48;72.65;99899.50;5051012;28;20170;-77
2020/12/15 01:06:37;;;;;;;3.50;3.20;;;;;;;7.52;72.36;99900.50;5050885;28;20180;-76
2020/12/15 01:09:05;;;;;;;3.70;3.50;;;;;;;7.57;72.10;99886.81;5051190;28;20262;-76
2020/12/15 01:11:30;;;;;;;4.30;4.00;;;;;;;7.55;72.06;99883.59;5051020;28;20508;-76
2020/12/15 01:13:56;;;;;;;2.50;2.30;;;;;;;7.56;72.34;99877.06;5051094;28;20600;-75
2020/12/15 01:16:22;;;;;;;3.50;3.27;;;;;;;7.56;72.26;99874.34;5050922;28;20199;-75
2020/12/15 01:18:47;;;;;;;2.37;2.17;;;;;;;7.58;71.72;99872.13;5050989;28;20258;-75
2020/12/15 01:21:12;;;;;;;4.73;4.40;;;;;;;7.56;72.31;99860.75;5050814;28;20309;-75
2020/12/15 01:23:37;;;;;;;4.43;4.13;;;;;;;7.58;72.75;99860.44;5050895;28;20651;-75
2020/12/15 01:26:03;;;;;;;4.93;4.63;;;;;;;7.54;72.28;99849.38;5050922;28;20179;-75
2020/12/15 01:28:28;;;;;;;4.10;3.90;;;;;;;7.57;72.74;99856.13;5050730;28;20815;-76
2020/12/15 01:30:53;;;;;;;4.50;4.20;;;;;;;7.56;72.52;99843.63;5050731;28;20286;-75
2020/12/15 01:33:19;;;;;;;3.97;3.67;;;;;;;7.62;71.66;99853.28;5050762;28;20216;-75
2020/12/15 01:35:45;;;;;;;4.50;4.20;;;;;;;7.62;72.18;99842.41;5050601;28;20626;-76
2020/12/15 01:38:10;;;;;;;4.20;3.97;;;;;;;7.61;72.20;99844.31;5050494;28;20255;-75
2020/12/15 01:40:36;;;;;;;4.27;3.97;;;;;;;7.65;72.02;99853.47;5050807;28;20175;-75
2020/12/15 01:43:01;;;;;;;4.17;3.77;;;;;;;7.61;72.66;99840.78;5049413;28;20487;-76
2020/12/15 01:45:26;;;;;;;4.73;4.30;;;;;;;7.62;72.78;99840.47;5050802;28;20186;-76
2020/12/15 01:47:52;;;;;;;5.07;4.77;;;;;;;7.56;73.34;99833.56;5050390;28;20183;-76
2020/12/15 01:50:19;;;;;;;5.60;5.17;;;;;;;7.48;73.83;99837.00;5050435;28;20245;-75
2020/12/15 01:52:45;;;;;;;5.33;4.87;;;;;;;7.46;74.04;99821.00;5050513;28;20682;-76
2020/12/15 01:55:15;;;;;;;5.63;5.30;;;;;;;7.36;73.89;99823.13;5050589;28;20261;-75
2020/12/15 01:57:43;;;;;;;5.33;5.03;;;;;;;7.32;74.56;99809.34;5050492;28;20186;-75
2020/12/15 02:00:08;;;;;;;5.40;5.00;;;;;;;7.28;75.02;99821.94;5050468;28;20258;-75
2020/12/15 02:02:33;;;;;;;5.53;5.20;;;;;;;7.36;74.29;99809.53;5051027;28;20266;-76
2020/12/15 02:04:59;;;;;;;5.40;5.10;;;;;;;7.34;74.64;99814.47;5054485;28;20499;-76
2020/12/15 02:07:25;;;;;;;4.67;4.37;;;;;;;7.37;74.41;99806.50;5054376;28;20171;-75
2020/12/15 02:09:53;;;;;;;5.50;5.10;;;;;;;7.39;74.47;99806.22;5054220;28;20693;-76
2020/12/15 02:12:18;;;;;;;5.17;4.77;;;;;;;7.28;74.60;99802.94;5054331;28;20213;-75
2020/12/15 02:14:44;;;;;;;4.93;4.63;;;;;;;7.29;75.06;99790.16;5053079;28;20175;-75
2020/12/15 02:17:13;;;;;;;4.93;4.53;;;;;;;7.36;75.04;99785.09;5054061;28;20230;-76
2020/12/15 02:19:39;;;;;;;5.10;4.80;;;;;;;7.40;74.99;99777.94;5054417;28;20211;-76
2020/12/15 02:22:04;;;;;;;5.00;4.60;;;;;;;7.30;75.40;99772.72;5054456;28;20207;-76
2020/12/15 02:24:29;;;;;;;5.10;4.80;;;;;;;7.31;74.81;99777.84;5054077;28;20187;-75
2020/12/15 02:26:55;;;;;;;5.13;4.83;;;;;;;7.29;74.88;99780.09;5054197;28;20171;-76
2020/12/15 02:29:21;;;;;;;5.23;4.83;;;;;;;7.29;75.42;99779.28;5054003;28;20254;-76
2020/12/15 02:31:47;;;;;;;4.83;4.53;;;;;;;7.30;74.97;99767.28;5053879;28;20211;-76
2020/12/15 02:34:12;;;;;;;4.57;4.27;;;;;;;7.37;75.15;99762.22;5053869;28;20551;-76
2020/12/15 02:36:38;;;;;;;3.83;3.63;;;;;;;7.40;74.63;99753.50;5053992;28;20246;-75
2020/12/15 02:39:06;;;;;;;4.30;4.00;;;;;;;7.49;73.84;99762.50;5053907;28;20171;-76
2020/12/15 02:41:31;;;;;;;4.53;4.23;;;;;;;7.48;74.63;99760.88;5053834;28;20176;-75
2020/12/15 02:43:56;;;;;;;3.83;3.63;;;;;;;7.64;73.07;99756.69;5053855;28;20530;-76
2020/12/15 02:46:22;;;;;;;3.90;3.70;;;;;;;7.64;73.57;99769.50;5053630;28;20638;-76
2020/12/15 02:48:47;;;;;;;3.93;3.53;;;;;;;7.51;73.57;99760.28;5052381;28;20194;-75
2020/12/15 02:51:12;;;;;;;3.73;3.53;;;;;;;7.43;74.45;99767.25;5053621;28;20199;-76
2020/12/15 02:53:38;;;;;;;4.20;3.90;;;;;;;7.51;74.81;99779.28;5053597;28;20645;-75
2020/12/15 02:56:03;;;;;;;3.40;3.20;;;;;;;7.54;74.39;99802.38;5052282;28;20282;-76
2020/12/15 02:58:28;;;;;;;3.33;3.13;;;;;;;7.80;72.83;99814.22;5053420;28;20266;-75
2020/12/15 03:00:53;;;;;;;4.23;3.93;;;;;;;7.91;72.47;99806.63;5053438;28;20266;-76
2020/12/15 03:03:22;;;;;;;3.93;3.63;;;;;;;7.81;72.89;99825.91;5051497;28;20177;-76
2020/12/15 03:05:47;;;;;;;3.27;3.07;;;;;;;7.88;72.86;99837.19;5053294;28;20174;-76
2020/12/15 03:08:13;;;;;;;3.70;3.50;;;;;;;7.84;72.94;99828.03;5053199;28;20167;-76
2020/12/15 03:10:39;;;;;;;4.43;4.13;;;;;;;7.84;72.96;99822.59;5053313;28;20576;-76
2020/12/15 03:13:05;;;;;;;2.43;2.23;;;;;;;7.83;72.63;99832.69;5053273;28;20202;-76
2020/12/15 03:15:30;;;;;;;4.20;3.90;;;;;;;7.87;71.97;99832.84;5053019;28;20175;-75
2020/12/15 03:17:55;;;;;;;4.03;3.73;;;;;;;7.92;71.89;99835.44;5052841;28;20186;-76
2020/12/15 03:20:20;;;;;;;3.70;3.50;;;;;;;7.91;72.26;99828.41;5053156;28;20184;-75
2020/12/15 03:22:46;;;;;;;4.27;3.97;;;;;;;7.90;72.45;99843.91;5053130;28;20183;-76
2020/12/15 03:25:11;;;;;;;3.80;3.50;;;;;;;7.89;72.20;99842.31;5052974;28;20172;-76
2020/12/15 03:27:36;;;;;;;3.60;3.40;;;;;;;7.89;72.48;99833.34;5052802;28;20260;-76
2020/12/15 03:30:02;;;;;;;3.30;3.10;;;;;;;7.94;71.77;99835.94;5052843;28;20182;-75
2020/12/15 03:32:28;;;;;;;1.50;1.40;;;;;;;7.93;71.70;99812.56;5051359;28;20214;-75
2020/12/15 03:34:53;;;;;;;4.17;3.87;;;;;;;7.89;71.78;99820.56;5052908;28;20457;-75
2020/12/15 03:37:19;;;;;;;2.07;1.97;;;;;;;7.89;71.54;99823.28;5052863;28;20179;-76
2020/12/15 03:39:44;;;;;;;1.57;1.43;;;;;;;7.88;71.35;99816.22;5053126;28;20530;-75
2020/12/15 03:42:09;;;;;;;1.27;1.27;;;;;;;7.88;71.34;99807.25;5052619;28;20175;-76
2020/12/15 03:44:35;;;;;;;2.57;2.37;;;;;;;7.91;71.16;99795.75;5052969;28;20179;-75
2020/12/15 03:47:01;;;;;;;2.43;2.27;;;;;;;7.94;70.38;99795.94;5052292;28;20202;-75
2020/12/15 03:49:26;;;;;;;2.37;2.27;;;;;;;8.00;70.46;99793.91;5052672;28;20203;-78
2020/12/15 03:51:51;;;;;;;1.67;1.57;;;;;;;8.02;70.83;99805.28;5052395;28;20557;-78
2020/12/15 03:54:17;;;;;;;2.57;2.10;;;;;;;8.08;69.63;99806.75;5052381;28;20624;-75
2020/12/15 03:56:42;;;;;;;2.27;2.17;;;;;;;8.05;70.60;99813.63;5052623;28;20178;-78
2020/12/15 03:59:08;;;;;;;1.93;1.83;;;;;;;8.01;70.30;99822.72;5052731;28;20576;-75
2020/12/15 04:01:33;;;;;;;2.03;1.87;;;;;;;7.99;70.35;99808.63;5050938;28;20647;-75
2020/12/15 04:03:59;;;;;;;1.20;1.20;;;;;;;8.01;70.10;99806.41;5052261;28;20171;-75
2020/12/15 04:06:24;;;;;;;3.33;2.27;;;;;;;7.98;70.00;99796.16;5052303;28;20232;-77
2020/12/15 04:08:49;;;;;;;2.07;1.87;;;;;;;7.97;70.02;99792.63;5052035;28;20171;-76
2020/12/15 04:11:15;;;;;;;5.43;1.70;;;;;;;7.96;70.09;99785.59;5052342;28;20199;-75
2020/12/15 04:13:40;;;;;;;1.87;1.77;;;;;;;7.95;69.77;99792.09;5052064;28;20182;-76
2020/12/15 04:16:05;;;;;;;2.23;2.03;;;;;;;7.96;69.53;99806.53;5051854;28;20190;-75
2020/12/15 04:18:31;;;;;;;3.03;2.73;;;;;;;7.99;69.59;99803.19;5051960;28;20187;-76
2020/12/15 04:20:56;;;;;;;3.67;3.37;;;;;;;8.01;69.36;99806.41;5052102;28;20175;-75
2020/12/15 04:23:21;;;;;;;3.90;3.60;;;;;;;7.98;69.71;99785.25;5051920;28;20623;-76
2020/12/15 04:25:55;;;;;;;1.87;1.77;;;;;;;8.05;69.01;99793.78;5051193;28;20179;-75
2020/12/15 04:28:21;;;;;;;2.43;2.27;;;;;;;8.10;68.57;99793.66;5051807;28;20179;-75
2020/12/15 04:30:47;;;;;;;1.97;1.87;;;;;;;8.15;68.61;99788.09;5051752;28;20190;-76
2020/12/15 04:33:13;;;;;;;2.00;1.57;;;;;;;8.15;68.26;99788.09;5051830;28;20182;-75
2020/12/15 04:35:39;;;;;;;2.73;2.40;;;;;;;8.21;67.96;99792.28;5050294;28;20176;-75
2020/12/15 04:38:05;;;;;;;1.80;1.70;;;;;;;8.25;67.74;99790.56;5051600;28;20268;-74
2020/12/15 04:40:32;;;;;;;1.37;1.20;;;;;;;8.24;67.93;99788.91;5051608;28;20182;-77
2020/12/15 04:43:00;;;;;;;3.37;3.17;;;;;;;8.27;67.58;99788.31;5051569;28;20205;-78
2020/12/15 04:45:26;;;;;;;3.03;2.83;;;;;;;8.24;68.10;99788.91;5050100;28;20586;-75
2020/12/15 04:48:00;;;;;;;3.87;3.40;;;;;;;8.24;68.03;99797.09;5051625;28;20183;-76
2020/12/15 04:50:34;;;;;;;3.73;3.53;;;;;;;8.18;68.13;99789.38;5060503;28;20201;-76
2020/12/15 04:53:11;;;;;;;7.20;6.70;;;;;;;8.10;68.57;99795.56;5054973;28;20249;-76
2020/12/15 04:55:38;;;;;;;4.23;3.93;;;;;;;8.03;68.73;99799.53;5052437;28;20179;-76
2020/12/15 04:58:04;;;;;;;4.40;4.00;;;;;;;8.08;68.09;99814.91;5051602;28;20612;-75
2020/12/15 05:00:30;;;;;;;4.13;3.83;;;;;;;8.18;68.05;99811.94;5051691;28;20198;-76
2020/12/15 05:02:57;;;;;;;4.03;3.83;;;;;;;8.11;68.81;99814.31;5051576;28;20171;-75
2020/12/15 05:05:24;;;;;;;4.57;4.27;;;;;;;7.94;69.34;99817.69;5051578;28;20199;-75
2020/12/15 05:07:49;;;;;;;4.10;3.80;;;;;;;7.85;69.74;99822.28;5051173;28;20189;-76
2020/12/15 05:10:18;;;;;;;5.03;4.73;;;;;;;7.73;70.59;99811.16;5051013;28;20254;-76
2020/12/15 05:12:44;;;;;;;4.60;4.30;;;;;;;7.58;71.54;99809.59;5050947;28;20210;-76
2020/12/15 05:15:11;;;;;;;4.40;4.10;;;;;;;7.41;72.26;99809.44;5051039;28;20266;-75
2020/12/15 05:17:36;;;;;;;5.00;4.70;;;;;;;7.41;72.89;99809.44;5050985;28;20492;-75
2020/12/15 05:20:04;;;;;;;5.83;5.43;;;;;;;7.57;72.50;99809.91;5050978;28;20175;-75
2020/12/15 05:22:46;;;;;;;6.37;5.97;;;;;;;7.67;72.64;99818.63;5051103;28;20277;-76
2020/12/15 05:25:21;;;;;;;6.00;5.60;;;;;;;7.64;72.58;99815.69;5050978;28;20492;-76
2020/12/15 05:27:46;;;;;;;5.60;5.30;;;;;;;7.61;72.73;99817.13;5050783;28;20201;-76
2020/12/15 05:30:12;;;;;;;5.23;4.93;;;;;;;7.51;73.39;99809.19;5050832;28;20175;-76
2020/12/15 05:32:51;;;;;;;5.30;4.97;;;;;;;7.57;72.84;99809.91;5049540;28;20203;-76
2020/12/15 05:35:25;;;;;;;5.37;4.97;;;;;;;7.56;72.49;99808.28;5050630;28;20229;-75
2020/12/15 05:37:51;;;;;;;4.97;4.67;;;;;;;7.60;71.62;99818.25;5050592;28;20182;-76
2020/12/15 05:40:16;;;;;;;4.90;4.60;;;;;;;7.67;71.32;99815.91;5050757;28;20187;-76
2020/12/15 05:42:42;;;;;;;5.00;4.70;;;;;;;7.79;71.31;99828.13;5051001;28;20261;-75
2020/12/15 05:45:08;;;;;;;5.97;5.57;;;;;;;7.66;72.14;99838.75;5050753;28;20206;-76
2020/12/15 05:47:33;;;;;;;6.10;5.60;;;;;;;7.72;72.05;99834.81;5050295;28;20245;-76
2020/12/15 05:49:59;;;;;;;6.13;5.67;;;;;;;7.46;72.99;99833.78;5050499;28;20186;-76
2020/12/15 05:52:26;;;;;;;6.00;5.60;;;;;;;7.39;72.70;99842.38;5050465;28;20238;-76
2020/12/15 05:55:04;;;;;;;6.60;6.10;;;;;;;7.53;72.75;99836.91;5050475;28;20186;-76
2020/12/15 05:57:30;;;;;;;5.93;5.53;;;;;;;7.70;71.97;99833.53;5050438;28;20171;-76
2020/12/15 06:00:06;;;;;;;5.70;5.30;;;;;;;7.60;72.50;99836.47;5050653;28;20183;-76
2020/12/15 06:02:31;;;;;;;5.70;5.40;;;;;;;7.49;73.03;99829.63;5050396;28;20187;-75
2020/12/15 06:04:59;;;;;;;5.77;5.37;;;;;;;7.55;72.78;99828.44;5050351;28;20651;-75
2020/12/15 06:07:26;;;;;;;6.13;5.73;;;;;;;7.60;73.39;99833.75;5050324;28;20258;-76
2020/12/15 06:09:55;;;;;;;5.63;5.23;;;;;;;7.51;72.82;99830.13;5050346;28;20176;-75
2020/12/15 06:12:20;;;;;;;6.83;6.33;;;;;;;7.64;73.14;99827.38;5050492;28;20211;-76
2020/12/15 06:14:49;;;;;;;6.33;5.93;;;;;;;7.62;73.22;99818.72;5050227;28;20655;-77
2020/12/15 06:17:16;;;;;;;6.20;5.63;;;;;;;7.30;74.65;99819.72;5050359;28;20623;-76
2020/12/15 06:19:42;;;;;;;6.20;5.80;;;;;;;7.25;74.69;99822.56;5050589;28;20175;-75
2020/12/15 06:22:09;;;;;;;6.67;5.97;;;;;;;7.30;74.46;99832.50;5050216;28;20539;-76
2020/12/15 06:24:40;;;;;;;6.40;6.00;;;;;;;7.40;74.12;99827.66;5050211;28;20186;-76
2020/12/15 06:27:08;;;;;;;7.17;6.63;;;;;;;7.38;74.77;99821.72;5050310;28;20163;-76
2020/12/15 06:29:36;;;;;;;7.13;6.73;;;;;;;7.28;75.71;99830.09;5050265;28;20179;-76
2020/12/15 06:32:08;;;;;;;6.27;5.87;;;;;;;7.29;75.82;99836.34;5050161;28;20230;-76
2020/12/15 06:34:33;;;;;;;5.30;4.90;;;;;;;7.31;75.22;99832.19;5050016;28;20198;-76
2020/12/15 06:36:59;;;;;;;6.43;5.93;;;;;;;7.25;76.13;99838.06;5050010;28;20175;-75
2020/12/15 06:39:28;;;;;;;6.07;5.60;;;;;;;7.28;75.76;99851.84;5050233;28;20171;-74
2020/12/15 06:42:02;;;;;;;6.90;6.40;;;;;;;7.22;76.45;99844.06;5049928;28;20262;-76
2020/12/15 06:44:36;;;;;;;6.53;6.03;;;;;;;7.21;76.59;99837.03;5050140;28;20251;-76
2020/12/15 06:47:03;;;;;;;6.67;6.17;;;;;;;7.22;76.14;99849.50;5049777;28;20650;-76
2020/12/15 06:49:33;;;;;;;7.17;6.57;;;;;;;7.21;76.35;99856.06;5050742;28;20866;-76
2020/12/15 06:52:03;;;;;;;7.63;7.13;;;;;;;7.19;76.46;99858.28;5053805;28;20713;-76
2020/12/15 06:54:30;;;;;;;7.83;7.07;;;;;;;7.13;77.17;99850.25;5053547;28;20266;-75
2020/12/15 06:57:08;;;;;;;6.73;6.33;;;;;;;7.22;77.22;99844.06;5053551;28;20179;-76
2020/12/15 06:59:38;;;;;;;7.07;6.57;;;;;;;7.31;76.69;99853.94;5053749;28;20241;-76
2020/12/15 07:02:12;;;;;;;6.93;6.30;;;;;;;7.32;76.80;99860.16;5053545;28;20171;-76
2020/12/15 07:04:47;;;;;;;7.50;6.90;;;;;;;7.29;77.14;99848.00;5053537;28;20179;-76
2020/12/15 07:07:14;;;;;;;6.90;6.40;;;;;;;7.36;77.24;99850.28;5053377;28;20541;-76
2020/12/15 07:09:40;;;;;;;6.90;6.30;;;;;;;7.35;77.51;99854.13;5053297;28;20179;-75
2020/12/15 07:12:12;;;;;;;7.07;6.57;;;;;;;7.26;77.25;99855.97;5053349;28;20521;-76
2020/12/15 07:14:38;;;;;;;6.83;6.30;;;;;;;7.27;77.56;99854.84;5053213;28;20526;-76
2020/12/15 07:17:03;;;;;;;5.77;5.27;;;;;;;7.32;78.12;99841.97;5053225;28;20175;-76
2020/12/15 07:19:29;;;;;;;7.40;6.80;;;;;;;7.28;78.11;99840.97;5052065;28;20182;-76
2020/12/15 07:21:54;;;;;;;7.20;6.70;;;;;;;7.32;78.04;99835.72;5051843;28;20222;-75
2020/12/15 07:24:19;;;;;;;7.03;6.43;;;;;;;7.24;78.66;99852.75;5053079;28;20189;-76
2020/12/15 07:26:45;;;;;;;7.37;6.77;;;;;;;7.27;78.25;99852.94;5053104;28;20228;-76
2020/12/15 07:29:11;;;;;;;7.83;7.23;;;;;;;7.30;79.14;99851.53;5053022;28;20179;-76
2020/12/15 07:31:36;;;;;;;8.38;7.78;;;;;;;7.13;79.53;99847.53;5053088;28;20470;-76
2020/12/15 07:34:13;;;;;;;7.93;7.43;;;;;;;7.14;79.32;99849.13;5051339;28;20210;-76
2020/12/15 07:36:40;;;;;;;8.87;8.27;;;;;;;6.99;80.04;99854.88;5051418;28;20175;-76
2020/12/15 07:39:06;;;;;;;10.27;9.40;;;;;;;6.84;81.03;99844.31;5053251;28;20171;-76
2020/12/15 07:41:38;;;;;;;9.60;8.80;;;;;;;6.92;81.07;99861.78;5052805;28;20175;-76
2020/12/15 07:44:11;;;;;;;9.77;8.87;;;;;;;6.99;80.86;99860.31;5052811;28;20167;-75
2020/12/15 07:46:43;;;;;;;8.87;8.27;;;;;;;6.93;81.21;99852.53;5052575;28;20167;-76
2020/12/15 07:49:09;;;;;;;10.63;9.73;;;;;;;7.01;80.83;99862.72;5052720;28;20179;-76
2020/12/15 07:51:37;;;;;;;10.83;9.93;;;;;;;7.15;80.44;99867.03;5052453;28;20191;-76
2020/12/15 07:54:03;;;;;;;21.27;16.30;;;;;;;7.19;80.47;99866.41;5052681;28;20198;-76
2020/12/15 07:56:28;;;;;;;32.23;19.93;;;;;;;7.23;79.96;99873.66;5052545;28;20203;-76
2020/12/15 07:58:55;;;;;;;46.07;23.20;;;;;;;7.08;80.44;99863.91;5052458;28;20597;-76
2020/12/15 08:01:22;;;;;;;34.60;17.47;;;;;;;7.14;80.78;99854.56;5051364;28;20259;-75
2020/12/15 08:03:48;;;;;;;61.27;25.87;;;;;;;7.14;81.10;99865.44;5052489;28;20175;-76
2020/12/15 08:06:14;;;;;;;8.43;7.63;;;;;;;7.28;81.07;99862.69;5052284;28;20178;-76
2020/12/15 08:08:40;;;;;;;10.87;9.90;;;;;;;7.22;80.92;99872.03;5052189;28;20230;-76
2020/12/15 08:11:18;;;;;;;14.40;13.07;;;;;;;7.13;81.80;99873.88;5052321;28;20199;-75
2020/12/15 08:13:46;;;;;;;11.70;10.60;;;;;;;7.15;82.20;99880.63;5052037;28;20654;-75
2020/12/15 08:16:11;;;;;;;9.57;8.87;;;;;;;6.99;82.58;99886.66;5052081;28;20178;-76
2020/12/15 08:18:37;;;;;;;11.27;9.30;;;;;;;7.02;83.35;99894.19;5052349;28;20167;-78
2020/12/15 08:21:06;;;;;;;11.63;10.83;;;;;;;6.87;83.14;99881.72;5050726;28;20228;-71
2020/12/15 08:23:34;;;;;;;9.60;8.87;;;;;;;6.97;83.26;99889.69;5051876;28;20529;-72
2020/12/15 08:26:00;;;;;;;9.93;9.23;;;;;;;6.92;83.63;99889.75;5051664;28;20175;-71
2020/12/15 08:28:25;;;;;;;10.87;10.17;;;;;;;6.99;83.48;99884.75;5051702;28;20635;-72
2020/12/15 08:30:53;;;;;;;10.77;9.97;;;;;;;7.08;83.03;99896.50;5051626;28;20199;-72
2020/12/15 08:33:26;;;;;;;10.50;9.70;;;;;;;7.02;83.44;99884.13;5051810;28;20210;-71
2020/12/15 08:35:52;;;;;;;9.17;8.57;;;;;;;7.12;82.86;99886.66;5051713;28;20175;-71
2020/12/15 08:38:19;;;;;;;8.67;8.07;;;;;;;7.25;83.02;99886.97;5051186;28;20179;-71
2020/12/15 08:40:52;;;;;;;9.17;8.47;;;;;;;7.15;83.45;99894.19;5051645;28;20175;-76
2020/12/15 08:43:19;;;;;;;8.73;8.13;;;;;;;7.12;83.22;99905.69;5051787;28;20216;-77
2020/12/15 08:45:44;;;;;;;8.27;7.77;;;;;;;7.13;83.12;99901.03;5051727;28;20174;-76
2020/12/15 08:48:16;;;;;;;10.27;9.47;;;;;;;7.14;83.32;99895.31;5051437;28;20175;-76
2020/12/15 08:50:42;;;;;;;9.83;9.13;;;;;;;7.23;83.16;99895.38;5051558;28;20608;-76
2020/12/15 08:53:08;;;;;;;8.97;8.30;;;;;;;7.22;83.08;99892.97;5051348;28;20179;-76
2020/12/15 08:55:35;;;;;;;8.23;7.67;;;;;;;7.25;83.31;99900.56;5051498;28;20278;-76
2020/12/15 08:58:02;;;;;;;8.97;8.13;;;;;;;7.23;83.39;99895.38;5051370;28;20178;-76
2020/12/15 09:00:33;;;;;;;8.97;8.30;;;;;;;7.40;82.46;99905.66;5051574;28;20516;-76
2020/12/15 09:03:11;;;;;;;8.53;7.90;;;;;;;7.40;82.73;99916.53;5051457;28;20251;-76
2020/12/15 09:06:06;;;;;;;7.87;7.27;;;;;;;7.49;82.84;99928.28;5051173;28;20264;-76
2020/12/15 09:08:31;;;;;;;7.50;7.00;;;;;;;7.53;82.07;99923.88;5050795;28;20188;-76
2020/12/15 09:10:57;;;;;;;7.93;7.33;;;;;;;7.49;82.56;99924.78;5050898;28;20262;-76
2020/12/15 09:13:25;;;;;;;9.20;8.60;;;;;;;7.43;83.03;99926.78;5050775;28;20171;-76
2020/12/15 09:15:54;;;;;;;7.77;7.27;;;;;;;7.57;82.61;99937.66;5051111;28;20201;-76
2020/12/15 09:18:29;;;;;;;8.23;7.53;;;;;;;7.60;82.08;99932.41;5049360;28;20278;-79
2020/12/15 09:20:55;;;;;;;8.37;7.67;;;;;;;7.60;82.17;99926.97;5050963;28;20171;-76
2020/12/15 09:23:26;;;;;;;8.83;8.30;;;;;;;7.59;82.10;99928.09;5049584;28;20186;-76
2020/12/15 09:25:54;;;;;;;8.23;7.63;;;;;;;7.70;81.95;99918.63;5050837;28;20178;-76
2020/12/15 09:28:26;;;;;;;9.10;8.40;;;;;;;7.69;82.21;99913.47;5050699;28;20175;-76
2020/12/15 09:30:52;;;;;;;7.80;7.20;;;;;;;7.82;82.29;99926.25;5050553;28;20175;-76
2020/12/15 09:33:17;;;;;;;8.13;7.53;;;;;;;7.88;81.49;99916.06;5050672;28;20535;-75
2020/12/15 09:35:43;;;;;;;7.33;6.83;;;;;;;7.95;81.70;99919.13;5050763;28;20171;-76
2020/12/15 09:38:08;;;;;;;4.93;4.57;;;;;;;8.01;81.15;99920.66;5050523;28;20184;-72
2020/12/15 09:40:33;;;;;;;6.63;6.07;;;;;;;8.02;81.09;99927.69;5050718;28;20631;-72
2020/12/15 09:42:59;;;;;;;6.13;5.63;;;;;;;7.99;80.89;99931.84;5049166;28;20217;-74
2020/12/15 09:45:24;;;;;;;7.43;6.83;;;;;;;7.95;81.12;99933.53;5050434;28;20175;-74
2020/12/15 09:47:50;;;;;;;7.80;7.30;;;;;;;7.97;81.26;99930.53;5050143;28;20561;-74
2020/12/15 09:50:15;;;;;;;8.00;7.40;;;;;;;7.98;81.17;99915.84;5050288;28;20674;-74
2020/12/15 09:52:41;;;;;;;7.53;7.03;;;;;;;8.04;81.59;99920.03;5050497;28;20662;-75
2020/12/15 09:55:06;;;;;;;7.30;6.80;;;;;;;8.11;81.40;99933.22;5050614;28;20175;-75
2020/12/15 09:57:32;;;;;;;6.90;6.40;;;;;;;8.15;80.62;99945.09;5050615;28;20698;-75
2020/12/15 09:59:57;;;;;;;7.33;6.83;;;;;;;8.15;80.82;99950.53;5050171;28;20542;-76
2020/12/15 10:02:22;;;;;;;7.50;7.00;;;;;;;8.11;81.40;99946.81;5050251;28;20179;-76
2020/12/15 10:04:47;;;;;;;7.33;6.83;;;;;;;8.15;81.47;99950.53;5050478;28;20846;-75
2020/12/15 10:07:13;;;;;;;7.00;6.50;;;;;;;8.29;80.90;99948.56;5050275;28;20182;-75
2020/12/15 10:09:40;;;;;;;7.30;6.80;;;;;;;8.40;81.15;99960.06;5048801;28;20187;-76
2020/12/15 10:12:06;;;;;;;7.23;6.63;;;;;;;8.40;80.45;99939.09;5050318;28;20203;-75
2020/12/15 10:14:31;;;;;;;8.00;7.43;;;;;;;8.46;80.55;99937.03;5050159;28;20240;-75
2020/12/15 10:16:56;;;;;;;7.97;7.47;;;;;;;8.50;79.86;99946.19;5050179;28;20198;-76
2020/12/15 10:19:22;;;;;;;6.50;6.10;;;;;;;8.64;79.84;99946.94;5048980;28;20265;-76
2020/12/15 10:21:53;;;;;;;6.37;5.87;;;;;;;8.74;79.22;99951.31;5049964;28;20520;-76
2020/12/15 10:24:18;;;;;;;7.60;7.00;;;;;;;8.70;79.50;99948.41;5051991;28;20171;-77
2020/12/15 10:26:43;;;;;;;7.43;6.93;;;;;;;8.79;79.61;99951.19;5054012;28;20175;-76
2020/12/15 10:29:09;;;;;;;7.80;7.27;;;;;;;8.76;78.94;99947.16;5054225;28;20175;-77
2020/12/15 10:31:34;;;;;;;7.83;7.23;;;;;;;8.71;79.31;99950.03;5053869;28;20260;-77
2020/12/15 10:33:59;;;;;;;6.87;6.47;;;;;;;8.77;79.38;99947.97;5053942;28;20175;-79
2020/12/15 10:36:25;;;;;;;8.23;7.53;;;;;;;8.73;79.86;99957.88;5054170;28;20179;-78
2020/12/15 10:38:50;;;;;;;7.00;6.60;;;;;;;8.74;79.14;99956.75;5053962;28;20186;-75
2020/12/15 10:41:15;;;;;;;7.40;6.90;;;;;;;8.77;79.49;99950.69;5054151;28;20183;-75
2020/12/15 10:43:41;;;;;;;7.67;7.07;;;;;;;8.74;79.26;99952.13;5053778;28;20207;-75
2020/12/15 10:46:07;;;;;;;7.53;7.03;;;;;;;8.70;79.28;99947.63;5053709;28;20175;-75
2020/12/15 10:48:33;;;;;;;7.27;6.77;;;;;;;8.71;79.07;99946.50;5054093;28;20195;-75
2020/12/15 10:50:59;;;;;;;7.10;6.70;;;;;;;8.71;79.12;99954.66;5053907;28;20182;-75
2020/12/15 10:53:24;;;;;;;6.90;6.30;;;;;;;8.69;79.01;99952.25;5060063;28;20632;-75
2020/12/15 10:55:51;;;;;;;7.33;6.73;;;;;;;8.56;79.77;99953.94;5059494;28;20221;-75
2020/12/15 10:58:17;;;;;;;8.37;7.67;;;;;;;8.65;79.82;99956.69;5054958;28;20182;-75
2020/12/15 11:00:43;;;;;;;7.60;7.07;;;;;;;8.42;80.25;99960.56;5052868;28;20179;-75
2020/12/15 11:03:08;;;;;;;8.03;7.33;;;;;;;8.58;79.82;99953.63;5053796;28;20282;-75
2020/12/15 11:05:34;;;;;;;8.20;7.57;;;;;;;8.49;79.98;99956.28;5053741;28;20199;-75
2020/12/15 11:07:59;;;;;;;8.43;7.83;;;;;;;8.29;81.01;99943.94;5053706;28;20179;-75
2020/12/15 11:10:24;;;;;;;8.30;7.80;;;;;;;8.19;81.12;99938.72;5053616;28;20547;-75
2020/12/15 11:12:50;;;;;;;9.53;8.83;;;;;;;8.34;81.97;99946.56;5053343;28;20207;-75
2020/12/15 11:15:15;;;;;;;8.70;8.10;;;;;;;8.37;82.38;99941.59;5053491;28;20602;-75
2020/12/15 11:17:40;;;;;;;9.33;8.70;;;;;;;8.28;82.30;99933.34;5053240;28;20175;-74
2020/12/15 11:20:06;;;;;;;8.73;8.03;;;;;;;8.45;82.60;99936.22;5053313;28;20243;-75
2020/12/15 11:22:32;;;;;;;8.23;7.57;;;;;;;8.56;82.40;99942.25;5053301;28;20615;-74
2020/12/15 11:24:57;;;;;;;8.77;8.10;;;;;;;8.50;82.56;99943.47;5053216;28;20175;-74
2020/12/15 11:27:22;;;;;;;9.87;8.93;;;;;;;8.44;83.05;99937.34;5053024;28;20583;-75
2020/12/15 11:29:48;;;;;;;9.63;8.93;;;;;;;8.23;84.28;99923.38;5053091;28;20685;-75
2020/12/15 11:32:13;;;;;;;10.23;9.50;;;;;;;8.16;84.79;99914.06;5053080;28;20206;-75
2020/12/15 11:34:39;;;;;;;9.73;8.93;;;;;;;8.37;85.13;99919.81;5052838;28;20262;-74
2020/12/15 11:37:09;;;;;;;9.00;8.33;;;;;;;8.48;84.79;99924.72;5052897;28;20274;-74
2020/12/15 11:39:35;;;;;;;9.27;8.47;;;;;;;8.37;84.27;99923.34;5051655;28;20191;-74